Forside
METAR-TAF:

METAR-TAF

Lufthavne :

Murray, Kentucky, USA

Breddekreds: 36-39-52N, længdekreds: 088-22-22W, højde: 176 m

Aktuelle vejr

Denne rapport blev lavet for 13 minutter siden, kl. 00:35 UTC
Vind 9 kt fra nordnordøst
Temperatur -1°C
Fugtighed 100%
Tryk 1023 hPa
Sigt: 4.8 km
Brudte skyer i en højde af 600 ft
Overskyet i en højde af 1400 ft

METAR: KCEY 150035Z AUTO 02009KT 3SM BKN006 OVC014 M01/M01 A3021 RMK AO1

Tid: 18:48 (00:48 UTC)


TAF: fraværende

Vejrobservationer og prognoser fra mere end 4000 lufthavne (METAR og TAF).

De gule og røde prikker repræsenterer de meteorologiske stationer.

Flyt musen over at se navnet på stationen.

Så klik over at se vejr observationer og prognoser.

At skifte det kort: Klik på de grønne knapper med et sort kors for at zoome ind; på den grønne knap med en bindestreg for at zoome ud; eller på de grønne pile for tilstødende kort.


METAR-TAF: